Time;durP1;ratioP1;P1;durP2;ratioP2;P2;SDS_P1;SDS_P2;PMS_P1;PMS_P2;Temp;Humidity;BMP_temperature;BMP_pressure;BME280_temperature;BME280_humidity;BME280_pressure;Samples;Min_cycle;Max_cycle;Signal;HPM_P1;HPM_P2
2023/06/29 00:01:33;;;;;;;8.10;7.27;;;19.80;98.80;;;;;;5139566;27;20526;-67
2023/06/29 00:04:02;;;;;;;8.53;7.63;;;19.70;99.90;;;;;;5139800;27;20462;-66
2023/06/29 00:06:36;;;;;;;10.53;7.63;;;19.80;99.90;;;;;;5139483;27;20783;-67
2023/06/29 00:09:04;;;;;;;11.13;8.00;;;19.80;99.90;;;;;;5139726;27;20458;-66
2023/06/29 00:11:34;;;;;;;12.40;7.30;;;19.80;38.50;;;;;;5139766;27;20488;-66
2023/06/29 00:14:01;;;;;;;7.60;6.80;;;19.70;67.90;;;;;;5139964;27;20466;-66
2023/06/29 00:16:30;;;;;;;9.47;7.57;;;19.70;99.90;;;;;;5138989;27;20511;-66
2023/06/29 00:19:00;;;;;;;11.03;6.93;;;19.70;99.90;;;;;;5139718;27;20469;-66
2023/06/29 00:21:29;;;;;;;9.40;8.40;;;19.70;99.90;;;;;;5139794;27;20458;-66
2023/06/29 00:23:56;;;;;;;9.17;7.60;;;19.70;99.90;;;;;;5139406;27;20470;-66
2023/06/29 00:26:29;;;;;;;11.10;7.80;;;19.70;99.90;;;;;;5139283;27;20494;-67
2023/06/29 00:28:56;;;;;;;10.63;7.80;;;19.70;99.90;;;;;;5139837;27;20938;-67
2023/06/29 00:31:24;;;;;;;8.17;7.20;;;19.70;99.90;;;;;;5139321;27;20441;-66
2023/06/29 00:33:52;;;;;;;10.20;8.37;;;19.70;99.90;;;;;;5139694;27;20462;-66
2023/06/29 00:36:22;;;;;;;7.90;7.10;;;19.70;99.90;;;;;;5139702;27;20458;-67
2023/06/29 00:38:51;;;;;;;10.90;7.67;;;19.60;99.90;;;;;;5139190;27;20490;-67
2023/06/29 00:41:18;;;;;;;9.20;7.87;;;19.60;99.90;;;;;;5139388;27;20568;-67
2023/06/29 00:43:46;;;;;;;9.13;7.47;;;19.60;99.90;;;;;;5138729;27;20473;-67
2023/06/29 00:46:15;;;;;;;9.83;8.60;;;19.60;99.90;;;;;;5138936;27;20914;-66
2023/06/29 00:48:45;;;;;;;8.83;7.77;;;19.60;99.90;;;;;;5139005;27;20743;-67
2023/06/29 00:51:13;;;;;;;9.00;7.93;;;19.60;99.90;;;;;;5138881;27;20458;-67
2023/06/29 00:53:42;;;;;;;10.93;7.83;;;19.50;99.90;;;;;;5139093;27;20463;-66
2023/06/29 00:56:11;;;;;;;10.23;7.37;;;19.50;99.90;;;;;;5139264;27;20458;-66
2023/06/29 00:58:41;;;;;;;9.87;8.70;;;19.60;99.90;;;;;;5139378;27;21044;-66
2023/06/29 01:01:09;;;;;;;10.90;8.03;;;19.50;99.90;;;;;;5156287;27;20498;-65
2023/06/29 01:03:36;;;;;;;8.93;7.77;;;19.50;99.90;;;;;;5157934;27;20454;-66
2023/06/29 01:06:07;;;;;;;11.50;8.07;;;19.60;99.90;;;;;;5159916;27;20457;-67
2023/06/29 01:08:43;;;;;;;8.87;7.90;;;19.50;99.90;;;;;;5159444;27;20471;-67
2023/06/29 01:11:13;;;;;;;8.77;7.87;;;19.50;99.90;;;;;;5159251;27;20486;-66
2023/06/29 01:13:43;;;;;;;12.87;8.17;;;19.50;99.90;;;;;;5159124;27;20493;-66
2023/06/29 01:16:12;;;;;;;12.30;7.93;;;19.50;99.90;;;;;;5149459;27;20469;-66
2023/06/29 01:18:39;;;;;;;10.13;8.60;;;19.40;99.90;;;;;;5137608;27;20930;-66
2023/06/29 01:21:06;;;;;;;9.07;7.80;;;19.40;99.90;;;;;;5136950;27;20482;-66
2023/06/29 01:23:36;;;;;;;9.33;8.30;;;19.40;99.90;;;;;;5137117;27;20469;-66
2023/06/29 01:26:06;;;;;;;12.00;8.60;;;19.30;99.90;;;;;;5136775;27;20462;-66
2023/06/29 01:28:36;;;;;;;11.70;8.20;;;19.30;99.90;;;;;;5136880;27;20454;-66
2023/06/29 01:31:03;;;;;;;11.60;8.57;;;19.20;99.90;;;;;;5136510;27;20515;-66
2023/06/29 01:33:31;;;;;;;11.57;7.90;;;19.10;99.90;;;;;;5137043;27;20915;-67
2023/06/29 01:36:04;;;;;;;10.57;8.40;;;19.10;99.90;;;;;;5138738;27;20850;-66
2023/06/29 01:38:37;;;;;;;8.33;7.53;;;19.10;99.90;;;;;;5138111;27;20490;-66
2023/06/29 01:41:07;;;;;;;9.57;8.60;;;19.10;99.90;;;;;;5138315;27;20564;-66
2023/06/29 01:43:36;;;;;;;11.63;8.40;;;19.20;99.90;;;;;;5138202;27;20458;-66
2023/06/29 01:46:05;;;;;;;10.37;8.43;;;19.10;99.90;;;;;;5137476;27;20441;-66
2023/06/29 01:48:33;;;;;;;12.10;8.13;;;19.10;99.90;;;;;;5138392;27;20459;-66
2023/06/29 01:51:02;;;;;;;8.87;7.70;;;19.10;99.90;;;;;;5137958;28;20509;-66
2023/06/29 01:53:29;;;;;;;10.30;7.50;;;19.00;99.90;;;;;;5138013;28;20910;-66
2023/06/29 01:55:57;;;;;;;12.10;8.07;;;19.00;99.90;;;;;;5138277;27;20459;-66
2023/06/29 01:58:25;;;;;;;9.00;7.50;;;19.00;99.90;;;;;;5142328;27;20482;-66
2023/06/29 02:00:52;;;;;;;12.30;7.93;;;19.00;99.90;;;;;;5142276;27;20479;-66
2023/06/29 02:03:20;;;;;;;8.90;7.77;;;19.00;99.90;;;;;;5142172;27;20462;-66
2023/06/29 02:05:47;;;;;;;12.23;8.70;;;19.00;99.90;;;;;;5142179;27;20458;-66
2023/06/29 02:08:14;;;;;;;13.50;8.20;;;19.00;99.90;;;;;;5141683;27;20552;-66
2023/06/29 02:10:41;;;;;;;10.40;8.90;;;19.00;99.90;;;;;;5142672;27;20454;-66
2023/06/29 02:13:09;;;;;;;11.70;9.10;;;19.00;99.90;;;;;;5142307;27;20454;-66
2023/06/29 02:15:37;;;;;;;13.30;8.60;;;19.00;99.90;;;;;;5141835;27;20462;-66
2023/06/29 02:18:04;;;;;;;12.43;8.83;;;18.90;99.90;;;;;;5141819;27;20494;-66
2023/06/29 02:20:32;;;;;;;8.50;7.70;;;18.90;99.90;;;;;;5142409;27;20757;-66
2023/06/29 02:22:59;;;;;;;11.93;8.20;;;18.90;99.90;;;;;;5142349;27;20933;-66
2023/06/29 02:25:26;;;;;;;13.60;8.60;;;18.90;99.90;;;;;;5141790;27;20434;-66
2023/06/29 02:27:53;;;;;;;9.60;8.70;;;18.90;99.90;;;;;;5141481;27;20509;-66
2023/06/29 02:30:20;;;;;;;8.80;7.90;;;18.90;99.90;;;;;;5140631;27;20497;-66
2023/06/29 02:32:49;;;;;;;9.30;8.40;;;18.90;99.90;;;;;;5162311;27;20500;-66
2023/06/29 02:35:16;;;;;;;11.03;8.47;;;18.90;99.90;;;;;;5161633;27;20771;-66
2023/06/29 02:37:43;;;;;;;9.53;7.50;;;18.80;99.90;;;;;;5162185;27;20937;-66
2023/06/29 02:40:11;;;;;;;11.53;9.30;;;18.80;99.90;;;;;;5161833;27;20548;-66
2023/06/29 02:42:38;;;;;;;9.87;8.20;;;18.70;1.00;;;;;;5161833;27;20458;-66
2023/06/29 02:45:07;;;;;;;9.70;8.63;;;18.70;1.00;;;;;;5162182;27;20484;-66
2023/06/29 02:47:34;;;;;;;10.73;8.00;;;18.70;1.00;;;;;;5158767;27;20468;-65
2023/06/29 02:50:03;;;;;;;8.83;7.60;;;18.70;1.00;;;;;;5161922;27;20461;-66
2023/06/29 02:52:30;;;;;;;9.37;8.00;;;18.70;1.00;;;;;;5161730;27;20555;-66
2023/06/29 02:54:57;;;;;;;10.70;9.30;;;18.80;1.00;;;;;;5162424;27;20457;-66
2023/06/29 02:57:24;;;;;;;9.47;8.30;;;18.70;1.00;;;;;;5161678;27;20481;-66
2023/06/29 02:59:51;;;;;;;10.53;7.80;;;18.70;1.00;;;;;;5161958;27;20457;-66
2023/06/29 03:02:19;;;;;;;8.87;7.97;;;18.70;1.00;;;;;;5161804;27;20569;-66
2023/06/29 03:04:46;;;;;;;12.00;8.10;;;18.70;1.00;;;;;;5162269;27;20477;-66
2023/06/29 03:07:14;;;;;;;12.70;9.13;;;18.70;1.00;;;;;;5161082;27;20480;-66
2023/06/29 03:09:41;;;;;;;9.57;8.33;;;18.70;1.00;;;;;;5161526;27;20457;-66
2023/06/29 03:12:12;;;;;;;13.03;9.50;;;18.70;1.00;;;;;;5161758;27;20462;-66
2023/06/29 03:14:39;;;;;;;10.30;8.17;;;18.70;1.00;;;;;;5162104;27;20454;-66
2023/06/29 03:17:08;;;;;;;10.63;8.70;;;18.80;1.00;;;;;;5142482;27;20510;-66
2023/06/29 03:19:35;;;;;;;11.43;8.17;;;18.80;99.90;;;;;;5140093;27;20487;-66
2023/06/29 03:22:02;;;;;;;9.73;7.83;;;18.80;1.00;;;;;;5141060;27;20458;-66
2023/06/29 03:24:30;;;;;;;11.27;8.50;;;18.80;1.00;;;;;;5140880;27;20737;-66
2023/06/29 03:26:58;;;;;;;11.50;7.87;;;18.80;1.00;;;;;;5140296;27;20458;-66
2023/06/29 03:29:25;;;;;;;8.43;7.70;;;18.80;1.00;;;;;;5139956;27;20461;-66
2023/06/29 03:31:52;;;;;;;14.17;7.90;;;18.80;1.00;;;;;;5139375;27;20463;-66
2023/06/29 03:34:19;;;;;;;9.60;7.40;;;18.80;1.00;;;;;;5140603;27;20754;-66
2023/06/29 03:36:46;;;;;;;9.47;8.43;;;18.80;1.00;;;;;;5139434;27;20640;-66
2023/06/29 03:39:31;;;;;;;8.63;7.80;;;18.80;1.00;;;;;;5140158;27;20518;-66
2023/06/29 03:41:59;;;;;;;11.20;8.20;;;18.80;1.00;;;;;;5140296;27;20468;-66
2023/06/29 03:44:26;;;;;;;11.50;8.47;;;18.80;1.00;;;;;;5140296;27;20556;-66
2023/06/29 03:46:53;;;;;;;9.20;7.17;;;18.80;1.00;;;;;;5140273;27;20466;-66
2023/06/29 03:49:20;;;;;;;9.70;7.60;;;18.80;1.00;;;;;;5140350;27;20751;-66
2023/06/29 03:51:50;;;;;;;9.20;7.60;;;18.70;1.00;;;;;;5140037;27;20463;-66
2023/06/29 03:54:18;;;;;;;8.27;7.40;;;18.60;1.00;;;;;;5139658;27;20450;-65
2023/06/29 03:56:46;;;;;;;12.10;7.43;;;18.60;1.00;;;;;;5140547;27;20458;-65
2023/06/29 03:59:16;;;;;;;9.00;8.10;;;18.70;1.00;;;;;;5139589;27;20497;-65
2023/06/29 04:01:43;;;;;;;8.57;7.50;;;18.80;1.00;;;;;;5139388;27;20486;-65
2023/06/29 04:04:10;;;;;;;9.93;7.53;;;18.90;1.00;;;;;;5139853;27;20459;-65
2023/06/29 04:06:37;;;;;;;8.43;6.60;;;18.90;1.00;;;;;;5140102;27;20887;-65
2023/06/29 04:09:04;;;;;;;8.60;7.70;;;19.00;1.00;;;;;;5140069;27;20463;-65
2023/06/29 04:11:33;;;;;;;9.33;7.20;;;19.10;1.00;;;;;;5139531;27;20458;-65
2023/06/29 04:14:01;;;;;;;9.80;7.77;;;19.10;99.90;;;;;;5139328;27;20438;-65
2023/06/29 04:16:29;;;;;;;8.47;6.97;;;19.20;99.90;;;;;;5139988;27;20537;-66
2023/06/29 04:18:56;;;;;;;8.53;7.40;;;19.30;99.90;;;;;;5139088;27;20497;-66
2023/06/29 04:21:23;;;;;;;9.80;7.57;;;19.20;99.90;;;;;;5139734;27;20455;-66
2023/06/29 04:23:50;;;;;;;8.57;7.67;;;19.30;99.90;;;;;;5139372;27;20463;-66
2023/06/29 04:26:18;;;;;;;8.00;6.90;;;19.30;99.90;;;;;;5139579;27;20520;-66
2023/06/29 04:28:46;;;;;;;7.57;6.87;;;19.40;99.90;;;;;;5139204;27;20434;-66
2023/06/29 04:31:15;;;;;;;9.00;6.73;;;19.40;99.90;;;;;;5145632;27;20470;-65
2023/06/29 04:33:42;;;;;;;9.03;7.43;;;19.40;99.90;;;;;;5159327;27;20511;-65
2023/06/29 04:36:12;;;;;;;9.17;7.07;;;19.40;99.90;;;;;;5160183;27;20461;-65
2023/06/29 04:38:39;;;;;;;7.97;6.37;;;19.40;99.90;;;;;;5159811;27;20576;-65
2023/06/29 04:41:07;;;;;;;8.70;7.13;;;19.40;99.90;;;;;;5159483;27;20454;-66
2023/06/29 04:43:36;;;;;;;14.73;7.80;;;19.40;99.90;;;;;;5159917;27;20462;-66
2023/06/29 04:46:04;;;;;;;8.23;7.30;;;19.40;99.90;;;;;;5158666;27;20508;-65
2023/06/29 04:48:36;;;;;;;10.90;6.90;;;19.40;99.90;;;;;;5158163;27;20502;-65
2023/06/29 04:51:05;;;;;;;10.13;7.50;;;19.40;99.90;;;;;;5158304;27;20461;-65
2023/06/29 04:53:33;;;;;;;7.80;6.90;;;19.50;99.90;;;;;;5158421;27;20465;-65
2023/06/29 04:56:01;;;;;;;10.23;7.30;;;19.60;99.90;;;;;;5158976;27;20544;-66
2023/06/29 04:58:29;;;;;;;7.90;6.73;;;19.60;99.90;;;;;;5158325;27;20876;-65
2023/06/29 05:00:57;;;;;;;8.53;7.23;;;19.60;99.90;;;;;;5158343;27;21072;-65
2023/06/29 05:03:25;;;;;;;9.70;7.20;;;19.70;99.90;;;;;;5158039;27;20485;-65
2023/06/29 05:05:54;;;;;;;7.73;6.93;;;19.80;99.90;;;;;;5158645;27;20871;-65
2023/06/29 05:08:22;;;;;;;8.60;7.33;;;19.80;99.90;;;;;;5158597;27;20475;-65
2023/06/29 05:10:50;;;;;;;11.93;6.70;;;19.90;99.90;;;;;;5159041;27;20464;-65
2023/06/29 05:13:17;;;;;;;10.67;7.17;;;19.90;99.90;;;;;;5158741;27;20491;-65
2023/06/29 05:15:47;;;;;;;8.10;7.40;;;20.00;99.90;;;;;;5159223;27;20556;-66
2023/06/29 05:18:15;;;;;;;9.00;8.07;;;20.00;99.90;;;;;;5158833;27;20552;-66
2023/06/29 05:20:42;;;;;;;7.93;6.60;;;20.10;99.90;;;;;;5159023;27;20508;-66
2023/06/29 05:23:11;;;;;;;7.60;6.80;;;20.10;99.90;;;;;;5159168;27;20472;-66
2023/06/29 05:25:39;;;;;;;9.37;7.43;;;20.20;99.90;;;;;;5158933;27;20461;-66
2023/06/29 05:28:06;;;;;;;7.90;6.53;;;20.30;99.90;;;;;;5158972;27;20458;-66
2023/06/29 05:30:34;;;;;;;7.47;6.60;;;20.30;99.90;;;;;;5158899;27;20461;-66
2023/06/29 05:33:01;;;;;;;7.87;7.10;;;20.40;99.90;;;;;;5158613;27;20465;-66
2023/06/29 05:35:28;;;;;;;8.20;6.63;;;20.40;99.90;;;;;;5159376;27;20801;-66
2023/06/29 05:37:56;;;;;;;8.40;6.23;;;20.50;99.90;;;;;;5159060;27;20463;-66
2023/06/29 05:40:24;;;;;;;8.57;7.53;;;20.50;99.90;;;;;;5158874;27;20580;-66
2023/06/29 05:42:51;;;;;;;8.10;7.30;;;20.60;99.90;;;;;;5158712;27;20458;-65
2023/06/29 05:45:18;;;;;;;9.87;7.60;;;20.60;99.90;;;;;;5159178;27;20458;-66
2023/06/29 05:47:45;;;;;;;8.00;6.20;;;20.60;99.90;;;;;;5159116;27;20458;-65
2023/06/29 05:50:13;;;;;;;8.40;7.23;;;20.60;66.60;;;;;;5158447;27;20460;-66
2023/06/29 05:52:40;;;;;;;7.40;6.40;;;20.60;47.60;;;;;;5159024;27;20458;-64
2023/06/29 05:55:07;;;;;;;7.40;6.70;;;20.50;38.90;;;;;;5158869;27;20466;-65
2023/06/29 05:57:36;;;;;;;7.80;6.67;;;20.50;94.50;;;;;;5158926;27;20461;-65
2023/06/29 06:00:07;;;;;;;8.47;6.60;;;20.50;95.70;;;;;;5158891;27;20488;-65
2023/06/29 06:02:34;;;;;;;7.53;6.67;;;20.50;99.90;;;;;;5133366;28;20515;-65
2023/06/29 06:05:01;;;;;;;7.10;6.33;;;20.60;66.30;;;;;;5134908;28;20451;-66
2023/06/29 06:07:29;;;;;;;8.73;6.97;;;20.70;90.50;;;;;;5137671;28;20451;-65
2023/06/29 06:09:56;;;;;;;8.00;7.20;;;20.80;76.80;;;;;;5137275;28;20447;-65
2023/06/29 06:12:24;;;;;;;6.90;5.90;;;20.90;53.40;;;;;;5137128;28;20483;-65
2023/06/29 06:14:52;;;;;;;7.73;6.53;;;21.00;73.30;;;;;;5136981;28;20454;-65
2023/06/29 06:17:20;;;;;;;7.60;6.80;;;21.10;48.30;;;;;;5137565;28;20458;-65
2023/06/29 06:19:47;;;;;;;7.20;6.50;;;21.20;1.00;;;;;;5136961;28;20845;-65
2023/06/29 06:22:14;;;;;;;7.33;6.63;;;21.20;1.00;;;;;;5136952;28;20426;-65
2023/06/29 06:24:41;;;;;;;7.77;6.97;;;21.30;1.00;;;;;;5140731;28;20808;-65
2023/06/29 06:27:08;;;;;;;7.93;6.67;;;21.30;1.00;;;;;;5139406;28;20459;-65
2023/06/29 06:29:35;;;;;;;6.67;6.00;;;21.40;1.00;;;;;;5138381;28;20450;-65
2023/06/29 06:32:04;;;;;;;7.97;7.07;;;21.60;1.00;;;;;;5138851;28;20455;-65
2023/06/29 06:34:32;;;;;;;7.57;6.57;;;21.50;1.00;;;;;;5117955;28;20458;-65
2023/06/29 06:36:59;;;;;;;6.20;5.60;;;21.80;1.00;;;;;;5118760;28;20463;-65
2023/06/29 06:39:27;;;;;;;8.20;5.90;;;22.00;1.00;;;;;;5118088;28;20487;-65
2023/06/29 06:41:54;;;;;;;7.17;6.47;;;22.10;1.00;;;;;;5118907;28;20445;-65
2023/06/29 06:44:21;;;;;;;7.43;6.50;;;22.10;1.00;;;;;;5141324;27;20514;-65
2023/06/29 06:46:49;;;;;;;9.33;6.53;;;22.20;1.00;;;;;;5141599;27;20454;-66
2023/06/29 06:49:17;;;;;;;6.83;5.97;;;22.40;1.00;;;;;;5140907;27;20461;-65
2023/06/29 06:51:44;;;;;;;7.23;5.97;;;22.40;1.00;;;;;;5142432;27;20909;-66
2023/06/29 06:54:11;;;;;;;8.47;5.90;;;22.40;1.00;;;;;;5142347;27;20465;-66
2023/06/29 06:56:39;;;;;;;9.97;5.40;;;22.50;1.00;;;;;;5142479;27;20872;-66
2023/06/29 06:59:07;;;;;;;7.17;5.77;;;22.60;1.00;;;;;;5142290;27;20493;-66
2023/06/29 07:01:34;;;;;;;6.80;5.90;;;22.60;1.00;;;;;;5142946;27;20490;-65
2023/06/29 07:04:03;;;;;;;7.80;5.67;;;22.60;99.90;;;;;;5142966;27;20475;-66
2023/06/29 07:06:33;;;;;;;6.90;5.83;;;22.70;99.90;;;;;;5142243;27;20467;-66
2023/06/29 07:09:00;;;;;;;5.37;4.77;;;22.70;99.90;;;;;;5141539;27;20458;-65
2023/06/29 07:11:27;;;;;;;7.33;5.60;;;22.80;99.90;;;;;;5142231;27;20520;-66
2023/06/29 07:13:55;;;;;;;6.13;5.57;;;22.90;99.90;;;;;;5141457;27;20454;-59
2023/06/29 07:16:24;;;;;;;8.33;5.70;;;22.80;99.90;;;;;;5149940;27;20469;-59
2023/06/29 07:19:04;;;;;;;6.17;5.20;;;22.90;99.90;;;;;;5160263;27;20465;-60
2023/06/29 07:21:33;;;;;;;6.20;5.23;;;23.00;99.90;;;;;;5144677;27;20447;-59
2023/06/29 07:24:00;;;;;;;6.30;5.50;;;23.00;99.90;;;;;;5140980;27;20880;-59
2023/06/29 07:26:28;;;;;;;7.60;5.10;;;22.90;99.90;;;;;;5140406;27;20537;-59
2023/06/29 07:28:55;;;;;;;5.80;5.17;;;22.90;99.90;;;;;;5139722;27;20550;-59
2023/06/29 07:31:26;;;;;;;6.73;5.30;;;22.80;99.90;;;;;;5140353;27;20458;-60
2023/06/29 07:33:55;;;;;;;5.87;5.03;;;22.80;99.90;;;;;;5140056;27;20458;-59
2023/06/29 07:36:23;;;;;;;5.30;4.80;;;22.80;99.90;;;;;;5139991;27;20553;-59
2023/06/29 07:38:51;;;;;;;5.80;5.30;;;22.80;99.90;;;;;;5139665;27;20458;-60
2023/06/29 07:41:19;;;;;;;7.57;5.10;;;22.80;99.90;;;;;;5138816;27;20569;-59
2023/06/29 07:43:49;;;;;;;6.87;5.50;;;22.80;99.90;;;;;;5140336;27;20510;-59
2023/06/29 07:46:16;;;;;;;6.03;4.73;;;22.80;99.90;;;;;;5147703;27;20548;-59
2023/06/29 07:48:43;;;;;;;4.97;4.47;;;22.80;99.90;;;;;;5143610;27;20477;-60
2023/06/29 07:51:11;;;;;;;6.67;5.60;;;22.90;99.90;;;;;;5140470;27;20458;-59
2023/06/29 07:53:38;;;;;;;5.33;4.83;;;23.00;99.90;;;;;;5139478;27;20465;-59
2023/06/29 07:56:07;;;;;;;6.07;5.17;;;22.90;99.90;;;;;;5147151;27;20465;-59
2023/06/29 07:58:34;;;;;;;6.63;5.50;;;22.90;99.90;;;;;;5160690;27;20458;-59
2023/06/29 08:01:01;;;;;;;5.97;5.40;;;23.00;99.90;;;;;;5160047;27;20942;-60
2023/06/29 08:03:29;;;;;;;6.13;5.53;;;23.00;99.90;;;;;;5161114;27;20461;-59
2023/06/29 08:05:59;;;;;;;6.17;4.50;;;23.10;99.90;;;;;;5161130;27;20457;-60
2023/06/29 08:08:29;;;;;;;5.83;4.80;;;23.10;99.90;;;;;;5160594;27;20556;-59
2023/06/29 08:10:59;;;;;;;6.90;5.20;;;23.20;99.90;;;;;;5160381;27;20458;-59
2023/06/29 08:13:27;;;;;;;6.60;5.87;;;23.20;99.90;;;;;;5160671;27;20732;-59
2023/06/29 08:15:54;;;;;;;6.40;5.10;;;23.30;99.90;;;;;;5160563;27;20465;-59
2023/06/29 08:18:21;;;;;;;4.80;4.30;;;23.40;99.90;;;;;;5151326;27;20461;-59
2023/06/29 08:20:49;;;;;;;4.70;4.30;;;23.50;99.90;;;;;;5139252;27;20569;-59
2023/06/29 08:23:16;;;;;;;6.27;4.57;;;23.30;99.90;;;;;;5139438;27;20871;-60
2023/06/29 08:25:43;;;;;;;6.60;4.97;;;23.30;99.90;;;;;;5139072;27;20451;-60
2023/06/29 08:28:10;;;;;;;8.07;4.73;;;23.40;99.90;;;;;;5138562;27;20460;-59
2023/06/29 08:30:39;;;;;;;6.80;4.93;;;23.50;99.90;;;;;;5138821;27;20451;-59
2023/06/29 08:33:06;;;;;;;6.50;5.00;;;23.60;99.90;;;;;;5138177;27;20459;-59
2023/06/29 08:35:34;;;;;;;4.60;4.20;;;23.90;99.90;;;;;;5138621;27;20473;-59
2023/06/29 08:38:02;;;;;;;5.80;5.13;;;23.90;99.90;;;;;;5139793;27;20459;-60
2023/06/29 08:40:35;;;;;;;5.43;4.93;;;24.00;99.90;;;;;;5139397;27;20979;-59
2023/06/29 08:43:03;;;;;;;6.40;4.87;;;23.90;99.90;;;;;;5137704;27;20473;-59
2023/06/29 08:45:30;;;;;;;5.37;4.87;;;23.90;99.90;;;;;;5138490;27;20491;-59
2023/06/29 08:48:00;;;;;;;5.80;5.20;;;24.10;99.90;;;;;;5138476;27;20459;-59
2023/06/29 08:50:29;;;;;;;4.43;4.00;;;24.30;99.90;;;;;;5138475;27;20859;-59
2023/06/29 08:52:57;;;;;;;9.30;5.13;;;24.50;99.90;;;;;;5138676;27;20463;-59
2023/06/29 08:55:25;;;;;;;6.10;4.70;;;24.60;99.90;;;;;;5137217;27;20542;-60
2023/06/29 08:57:54;;;;;;;5.17;4.00;;;24.60;99.90;;;;;;5135949;27;20454;-60
2023/06/29 09:00:22;;;;;;;5.07;4.40;;;24.80;99.90;;;;;;5136435;27;20513;-60
2023/06/29 09:02:53;;;;;;;8.80;5.30;;;25.00;99.90;;;;;;5136814;27;20811;-59
2023/06/29 09:05:22;;;;;;;6.47;5.20;;;24.90;99.90;;;;;;5136862;27;20458;-59
2023/06/29 09:07:50;;;;;;;6.90;4.80;;;24.80;99.90;;;;;;5136359;27;20460;-60
2023/06/29 09:10:18;;;;;;;6.40;5.57;;;25.10;99.90;;;;;;5135854;27;20500;-60
2023/06/29 09:12:45;;;;;;;6.43;4.87;;;25.20;99.90;;;;;;5137546;27;20465;-61
2023/06/29 09:15:13;;;;;;;6.20;5.00;;;25.30;99.90;;;;;;5138314;27;20444;-61
2023/06/29 09:17:45;;;;;;;10.10;6.10;;;25.30;99.90;;;;;;5137752;27;20459;-59
2023/06/29 09:20:18;;;;;;;6.40;5.77;;;25.30;99.90;;;;;;5135997;27;20490;-60
2023/06/29 09:22:51;;;;;;;7.90;7.20;;;25.10;99.90;;;;;;5136957;27;20458;-61
2023/06/29 09:25:19;;;;;;;7.40;6.70;;;24.80;97.30;;;;;;5134770;27;20485;-60
2023/06/29 09:27:46;;;;;;;8.43;6.90;;;24.80;99.90;;;;;;5136136;27;20458;-60
2023/06/29 09:30:18;;;;;;;8.67;7.77;;;25.00;99.90;;;;;;5136033;27;20458;-60
2023/06/29 09:32:45;;;;;;;7.47;6.73;;;24.90;99.90;;;;;;5136283;27;20880;-59
2023/06/29 09:35:13;;;;;;;8.07;7.27;;;24.80;99.90;;;;;;5137163;27;20460;-59
2023/06/29 09:37:41;;;;;;;8.43;7.00;;;24.90;97.50;;;;;;5159005;27;20458;-60
2023/06/29 09:40:11;;;;;;;8.23;7.43;;;25.00;69.50;;;;;;5159148;27;20515;-60
2023/06/29 09:42:40;;;;;;;9.33;7.57;;;24.80;61.90;;;;;;5158738;27;20462;-60
2023/06/29 09:45:12;;;;;;;9.87;7.77;;;24.90;89.30;;;;;;5159116;27;20457;-60
2023/06/29 09:47:42;;;;;;;10.23;7.73;;;25.00;51.90;;;;;;5140506;27;20458;-59
2023/06/29 09:50:19;;;;;;;9.70;8.10;;;24.80;44.90;;;;;;5126963;27;20563;-60
2023/06/29 09:52:47;;;;;;;8.33;7.00;;;24.80;45.20;;;;;;5138399;27;20464;-59
2023/06/29 09:55:16;;;;;;;8.63;7.73;;;25.00;94.10;;;;;;5134024;27;20491;-61
2023/06/29 09:57:45;;;;;;;8.83;7.87;;;25.00;47.00;;;;;;5136534;27;20470;-61
2023/06/29 10:00:14;;;;;;;8.80;8.00;;;24.70;33.40;;;;;;5137295;28;20483;-60
2023/06/29 10:02:41;;;;;;;8.43;7.37;;;24.80;43.70;;;;;;5136460;28;20518;-60
2023/06/29 10:05:10;;;;;;;11.20;8.43;;;24.60;27.50;;;;;;5136920;27;20462;-59
2023/06/29 10:07:38;;;;;;;9.43;8.13;;;24.70;33.20;;;;;;5142108;27;20454;-59
2023/06/29 10:10:10;;;;;;;9.87;8.87;;;24.50;49.10;;;;;;5136367;28;20465;-59
2023/06/29 10:12:39;;;;;;;8.77;7.63;;;24.60;38.70;;;;;;5136848;28;20458;-59
2023/06/29 10:15:10;;;;;;;9.30;8.30;;;24.60;55.90;;;;;;5138256;28;20910;-59
2023/06/29 10:17:47;;;;;;;12.70;9.50;;;24.50;46.10;;;;;;5139868;27;20494;-60
2023/06/29 10:20:17;;;;;;;8.17;7.37;;;24.70;48.60;;;;;;5141197;27;20893;-61
2023/06/29 10:22:46;;;;;;;12.50;8.37;;;24.70;55.60;;;;;;5140994;27;20545;-59
2023/06/29 10:25:18;;;;;;;8.20;7.40;;;24.60;37.70;;;;;;5141398;27;20447;-59
2023/06/29 10:27:49;;;;;;;8.27;7.47;;;24.60;37.80;;;;;;5141377;27;20485;-57
2023/06/29 10:30:20;;;;;;;10.17;7.90;;;24.60;62.50;;;;;;5141074;27;20946;-56
2023/06/29 10:32:50;;;;;;;9.17;8.27;;;24.70;21.80;;;;;;5140564;27;20462;-57
2023/06/29 10:35:18;;;;;;;9.77;8.73;;;24.70;36.50;;;;;;5141717;27;20506;-56
2023/06/29 10:37:50;;;;;;;9.13;8.27;;;24.70;60.20;;;;;;5141982;27;20458;-57
2023/06/29 10:40:18;;;;;;;8.50;7.70;;;24.50;34.30;;;;;;5141024;27;20495;-57
2023/06/29 10:42:52;;;;;;;7.93;7.13;;;24.60;29.00;;;;;;5140563;27;20596;-57
2023/06/29 10:45:33;;;;;;;11.93;8.43;;;24.90;60.30;;;;;;5120350;28;20460;-56
2023/06/29 10:48:07;;;;;;;10.77;8.50;;;25.10;68.00;;;;;;5128175;27;20458;-57
2023/06/29 10:50:38;;;;;;;9.27;8.37;;;25.40;70.00;;;;;;5138202;27;20458;-58
2023/06/29 10:53:06;;;;;;;9.83;7.63;;;25.80;99.90;;;;;;5139263;27;20466;-57
2023/06/29 10:55:45;;;;;;;9.73;7.70;;;26.10;99.90;;;;;;5137949;27;20800;-57
2023/06/29 10:58:20;;;;;;;8.60;7.80;;;26.40;40.00;;;;;;5138350;27;20513;-57
2023/06/29 11:00:48;;;;;;;9.60;7.83;;;26.50;36.10;;;;;;5139076;27;20958;-58
2023/06/29 11:03:16;;;;;;;9.53;8.60;;;26.50;11.30;;;;;;5138023;27;20466;-57
2023/06/29 11:05:43;;;;;;;10.90;8.83;;;26.50;17.00;;;;;;5138610;27;20462;-57
2023/06/29 11:08:11;;;;;;;9.23;8.10;;;26.50;19.70;;;;;;5138528;27;20928;-57
2023/06/29 11:10:38;;;;;;;9.00;8.10;;;26.60;14.70;;;;;;5139511;27;20482;-57
2023/06/29 11:13:10;;;;;;;12.93;8.50;;;26.60;1.00;;;;;;5134576;27;20788;-56
2023/06/29 11:15:39;;;;;;;9.87;8.87;;;26.80;1.00;;;;;;5137029;27;20462;-57
2023/06/29 11:18:09;;;;;;;11.97;9.47;;;27.00;8.50;;;;;;5138139;27;20467;-57
2023/06/29 11:20:39;;;;;;;11.33;8.87;;;27.40;9.60;;;;;;5137892;27;20543;-56
2023/06/29 11:23:08;;;;;;;9.73;8.73;;;27.80;1.00;;;;;;5139295;27;20545;-56
2023/06/29 11:25:37;;;;;;;11.30;8.30;;;27.90;1.00;;;;;;5139502;27;20433;-54
2023/06/29 11:28:05;;;;;;;9.53;8.70;;;27.80;1.00;;;;;;5141292;27;20864;-57
2023/06/29 11:30:32;;;;;;;9.83;8.93;;;27.80;1.00;;;;;;5132025;27;20430;-56
2023/06/29 11:33:02;;;;;;;10.23;9.20;;;27.90;1.00;;;;;;5136657;27;20466;-56
2023/06/29 11:35:31;;;;;;;9.53;8.30;;;28.00;1.00;;;;;;5138600;27;20903;-57
2023/06/29 11:38:00;;;;;;;9.67;8.87;;;27.80;1.00;;;;;;5137188;27;20557;-58
2023/06/29 11:40:29;;;;;;;10.40;9.17;;;27.80;1.00;;;;;;5139132;27;20933;-58
2023/06/29 11:42:57;;;;;;;11.23;10.07;;;27.80;1.00;;;;;;5139114;27;20462;-57
2023/06/29 11:45:24;;;;;;;12.30;9.00;;;27.50;1.00;;;;;;5137539;27;20462;-58
2023/06/29 11:47:55;;;;;;;12.37;10.57;;;27.50;1.00;;;;;;5158087;27;20806;-58
2023/06/29 11:50:25;;;;;;;10.97;9.87;;;27.20;1.00;;;;;;5149635;27;20501;-58
2023/06/29 11:52:53;;;;;;;11.57;10.47;;;27.10;1.00;;;;;;5138208;27;20467;-57
2023/06/29 11:55:20;;;;;;;11.20;9.50;;;27.00;1.00;;;;;;5139065;27;20523;-57
2023/06/29 11:57:52;;;;;;;13.63;9.77;;;27.00;1.00;;;;;;5145049;27;20465;-58
2023/06/29 12:00:31;;;;;;;11.90;10.80;;;27.30;1.00;;;;;;5146006;27;20463;-58
2023/06/29 12:03:06;;;;;;;13.83;11.10;;;27.20;1.00;;;;;;5155663;27;20457;-57
2023/06/29 12:05:39;;;;;;;11.60;10.37;;;27.20;1.00;;;;;;5157405;27;20453;-58
2023/06/29 12:08:08;;;;;;;13.10;11.70;;;27.10;1.00;;;;;;5147088;27;20476;-57
2023/06/29 12:10:37;;;;;;;13.90;11.17;;;27.00;1.00;;;;;;5156711;27;21001;-57
2023/06/29 12:13:05;;;;;;;13.63;12.40;;;26.70;1.00;;;;;;5154597;27;20763;-58
2023/06/29 12:15:33;;;;;;;14.20;12.80;;;26.50;1.00;;;;;;5137244;27;20458;-58
2023/06/29 12:18:08;;;;;;;15.13;13.63;;;26.40;1.00;;;;;;5138191;27;20469;-57
2023/06/29 12:20:41;;;;;;;12.47;11.17;;;26.20;1.00;;;;;;5135378;27;20486;-57
2023/06/29 12:23:10;;;;;;;13.43;10.37;;;26.00;1.00;;;;;;5135135;27;20796;-58
2023/06/29 12:25:50;;;;;;;15.93;11.20;;;25.70;1.00;;;;;;5128845;27;20471;-57
2023/06/29 12:28:19;;;;;;;12.23;10.93;;;25.50;1.00;;;;;;5134934;27;20459;-58
2023/06/29 12:30:47;;;;;;;14.80;13.23;;;25.30;1.00;;;;;;5149407;27;20453;-57
2023/06/29 12:33:15;;;;;;;13.70;12.33;;;25.20;1.00;;;;;;5138196;27;20468;-58
2023/06/29 12:35:49;;;;;;;12.50;11.20;;;25.10;1.00;;;;;;5138611;27;20493;-56
2023/06/29 12:38:17;;;;;;;13.30;11.60;;;25.10;1.00;;;;;;5137956;27;20461;-57
2023/06/29 12:40:47;;;;;;;13.23;11.83;;;24.90;1.00;;;;;;5137271;27;20461;-57
2023/06/29 12:43:14;;;;;;;12.20;10.87;;;24.90;1.00;;;;;;5138146;27;20451;-56
2023/06/29 12:45:41;;;;;;;15.70;10.03;;;24.90;1.00;;;;;;5133743;27;20644;-57
2023/06/29 12:48:08;;;;;;;13.10;10.30;;;24.80;1.00;;;;;;5132167;27;20757;-57
2023/06/29 12:50:36;;;;;;;12.57;10.27;;;24.70;1.00;;;;;;5142235;27;20463;-57
2023/06/29 12:53:04;;;;;;;11.57;10.37;;;24.90;1.00;;;;;;5138882;27;20463;-58